sensor_id;sensor_type;location;lat;lon;timestamp;P1;durP1;ratioP1;P2;durP2;ratioP2
14030;SDS011;7090;49.436;8.490;2023-05-07T00:01:42;6.03;;;5.82;;
14030;SDS011;7090;49.436;8.490;2023-05-07T00:04:08;5.90;;;5.70;;
14030;SDS011;7090;49.436;8.490;2023-05-07T00:06:34;6.30;;;6.10;;
14030;SDS011;7090;49.436;8.490;2023-05-07T00:09:00;6.07;;;5.88;;
14030;SDS011;7090;49.436;8.490;2023-05-07T00:11:26;5.80;;;5.60;;
14030;SDS011;7090;49.436;8.490;2023-05-07T00:13:52;5.70;;;5.50;;
14030;SDS011;7090;49.436;8.490;2023-05-07T00:16:18;5.97;;;5.78;;
14030;SDS011;7090;49.436;8.490;2023-05-07T00:18:44;6.32;;;6.13;;
14030;SDS011;7090;49.436;8.490;2023-05-07T00:21:10;6.15;;;5.95;;
14030;SDS011;7090;49.436;8.490;2023-05-07T00:23:35;6.30;;;6.10;;
14030;SDS011;7090;49.436;8.490;2023-05-07T00:26:01;6.90;;;6.70;;
14030;SDS011;7090;49.436;8.490;2023-05-07T00:28:27;6.60;;;6.40;;
14030;SDS011;7090;49.436;8.490;2023-05-07T00:30:53;6.70;;;6.50;;
14030;SDS011;7090;49.436;8.490;2023-05-07T00:33:18;6.50;;;6.30;;
14030;SDS011;7090;49.436;8.490;2023-05-07T00:35:45;50.13;;;10.65;;
14030;SDS011;7090;49.436;8.490;2023-05-07T00:38:11;6.70;;;6.50;;
14030;SDS011;7090;49.436;8.490;2023-05-07T00:40:36;7.15;;;6.95;;
14030;SDS011;7090;49.436;8.490;2023-05-07T00:43:02;6.80;;;6.60;;
14030;SDS011;7090;49.436;8.490;2023-05-07T00:45:28;6.72;;;6.53;;
14030;SDS011;7090;49.436;8.490;2023-05-07T00:47:58;7.40;;;7.10;;
14030;SDS011;7090;49.436;8.490;2023-05-07T00:50:25;6.68;;;6.47;;
14030;SDS011;7090;49.436;8.490;2023-05-07T00:52:54;6.80;;;6.60;;
14030;SDS011;7090;49.436;8.490;2023-05-07T00:55:21;6.50;;;6.30;;
14030;SDS011;7090;49.436;8.490;2023-05-07T00:57:47;6.50;;;6.30;;
14030;SDS011;7090;49.436;8.490;2023-05-07T01:00:14;6.28;;;6.07;;
14030;SDS011;7090;49.436;8.490;2023-05-07T01:02:39;6.50;;;6.30;;
14030;SDS011;7090;49.436;8.490;2023-05-07T01:05:05;6.63;;;6.43;;
14030;SDS011;7090;49.436;8.490;2023-05-07T01:07:34;7.20;;;7.00;;
14030;SDS011;7090;49.436;8.490;2023-05-07T01:10:01;7.18;;;6.97;;
14030;SDS011;7090;49.436;8.490;2023-05-07T01:12:29;7.10;;;6.90;;
14030;SDS011;7090;49.436;8.490;2023-05-07T01:14:56;7.90;;;7.60;;
14030;SDS011;7090;49.436;8.490;2023-05-07T01:17:22;7.17;;;6.97;;
14030;SDS011;7090;49.436;8.490;2023-05-07T01:19:48;7.40;;;7.10;;
14030;SDS011;7090;49.436;8.490;2023-05-07T01:22:14;7.32;;;7.03;;
14030;SDS011;7090;49.436;8.490;2023-05-07T01:24:41;7.33;;;7.03;;
14030;SDS011;7090;49.436;8.490;2023-05-07T01:27:07;7.60;;;7.30;;
14030;SDS011;7090;49.436;8.490;2023-05-07T01:29:33;7.60;;;7.30;;
14030;SDS011;7090;49.436;8.490;2023-05-07T01:32:00;7.70;;;7.40;;
14030;SDS011;7090;49.436;8.490;2023-05-07T01:34:28;7.20;;;7.00;;
14030;SDS011;7090;49.436;8.490;2023-05-07T01:36:55;7.70;;;7.40;;
14030;SDS011;7090;49.436;8.490;2023-05-07T01:39:24;6.37;;;6.17;;
14030;SDS011;7090;49.436;8.490;2023-05-07T01:41:52;6.90;;;6.70;;
14030;SDS011;7090;49.436;8.490;2023-05-07T01:44:21;6.20;;;6.00;;
14030;SDS011;7090;49.436;8.490;2023-05-07T01:46:47;6.00;;;5.80;;
14030;SDS011;7090;49.436;8.490;2023-05-07T01:49:13;6.70;;;6.50;;
14030;SDS011;7090;49.436;8.490;2023-05-07T01:51:40;6.43;;;6.23;;
14030;SDS011;7090;49.436;8.490;2023-05-07T01:54:06;6.60;;;6.40;;
14030;SDS011;7090;49.436;8.490;2023-05-07T01:56:33;6.47;;;6.27;;
14030;SDS011;7090;49.436;8.490;2023-05-07T01:58:59;6.63;;;6.43;;
14030;SDS011;7090;49.436;8.490;2023-05-07T02:01:24;7.03;;;6.67;;
14030;SDS011;7090;49.436;8.490;2023-05-07T02:03:50;5.50;;;5.30;;
14030;SDS011;7090;49.436;8.490;2023-05-07T02:06:15;6.90;;;6.60;;
14030;SDS011;7090;49.436;8.490;2023-05-07T02:08:41;6.80;;;6.50;;
14030;SDS011;7090;49.436;8.490;2023-05-07T02:11:07;6.90;;;6.40;;
14030;SDS011;7090;49.436;8.490;2023-05-07T02:13:33;5.50;;;5.30;;
14030;SDS011;7090;49.436;8.490;2023-05-07T02:16:02;5.50;;;5.30;;
14030;SDS011;7090;49.436;8.490;2023-05-07T02:18:28;5.40;;;5.20;;
14030;SDS011;7090;49.436;8.490;2023-05-07T02:20:54;5.63;;;5.43;;
14030;SDS011;7090;49.436;8.490;2023-05-07T02:23:19;5.90;;;5.70;;
14030;SDS011;7090;49.436;8.490;2023-05-07T02:25:45;6.30;;;6.10;;
14030;SDS011;7090;49.436;8.490;2023-05-07T02:28:11;5.80;;;5.60;;
14030;SDS011;7090;49.436;8.490;2023-05-07T02:30:37;6.00;;;5.80;;
14030;SDS011;7090;49.436;8.490;2023-05-07T02:33:03;6.70;;;6.50;;
14030;SDS011;7090;49.436;8.490;2023-05-07T02:35:29;6.40;;;6.20;;
14030;SDS011;7090;49.436;8.490;2023-05-07T02:37:54;6.37;;;6.17;;
14030;SDS011;7090;49.436;8.490;2023-05-07T02:40:20;6.20;;;6.00;;
14030;SDS011;7090;49.436;8.490;2023-05-07T02:42:45;6.17;;;5.97;;
14030;SDS011;7090;49.436;8.490;2023-05-07T02:45:11;6.40;;;6.20;;
14030;SDS011;7090;49.436;8.490;2023-05-07T02:47:37;6.10;;;5.90;;
14030;SDS011;7090;49.436;8.490;2023-05-07T02:50:02;6.10;;;5.90;;
14030;SDS011;7090;49.436;8.490;2023-05-07T02:52:28;6.07;;;5.87;;
14030;SDS011;7090;49.436;8.490;2023-05-07T02:54:54;6.13;;;5.93;;
14030;SDS011;7090;49.436;8.490;2023-05-07T02:57:20;5.37;;;5.17;;
14030;SDS011;7090;49.436;8.490;2023-05-07T02:59:45;5.40;;;5.20;;
14030;SDS011;7090;49.436;8.490;2023-05-07T03:02:11;5.60;;;5.40;;
14030;SDS011;7090;49.436;8.490;2023-05-07T03:04:36;5.60;;;5.40;;
14030;SDS011;7090;49.436;8.490;2023-05-07T03:07:02;5.60;;;5.40;;
14030;SDS011;7090;49.436;8.490;2023-05-07T03:09:28;5.47;;;5.27;;
14030;SDS011;7090;49.436;8.490;2023-05-07T03:11:54;5.50;;;5.30;;
14030;SDS011;7090;49.436;8.490;2023-05-07T03:14:19;7.43;;;7.10;;
14030;SDS011;7090;49.436;8.490;2023-05-07T03:16:45;5.70;;;5.50;;
14030;SDS011;7090;49.436;8.490;2023-05-07T03:19:10;6.07;;;5.87;;
14030;SDS011;7090;49.436;8.490;2023-05-07T03:21:36;5.90;;;5.70;;
14030;SDS011;7090;49.436;8.490;2023-05-07T03:24:02;6.10;;;5.90;;
14030;SDS011;7090;49.436;8.490;2023-05-07T03:26:27;6.17;;;5.97;;
14030;SDS011;7090;49.436;8.490;2023-05-07T03:28:54;6.93;;;6.63;;
14030;SDS011;7090;49.436;8.490;2023-05-07T03:31:20;6.30;;;6.10;;
14030;SDS011;7090;49.436;8.490;2023-05-07T03:33:52;6.30;;;6.07;;
14030;SDS011;7090;49.436;8.490;2023-05-07T03:36:19;6.13;;;5.93;;
14030;SDS011;7090;49.436;8.490;2023-05-07T03:38:45;6.50;;;6.30;;
14030;SDS011;7090;49.436;8.490;2023-05-07T03:41:11;6.60;;;6.40;;
14030;SDS011;7090;49.436;8.490;2023-05-07T03:43:37;6.80;;;6.60;;
14030;SDS011;7090;49.436;8.490;2023-05-07T03:46:03;6.57;;;6.37;;
14030;SDS011;7090;49.436;8.490;2023-05-07T03:48:28;6.70;;;6.50;;
14030;SDS011;7090;49.436;8.490;2023-05-07T03:50:54;6.53;;;6.33;;
14030;SDS011;7090;49.436;8.490;2023-05-07T03:53:20;6.60;;;6.40;;
14030;SDS011;7090;49.436;8.490;2023-05-07T03:55:46;6.60;;;6.40;;
14030;SDS011;7090;49.436;8.490;2023-05-07T03:58:11;6.40;;;6.20;;
14030;SDS011;7090;49.436;8.490;2023-05-07T04:00:37;6.47;;;6.27;;
14030;SDS011;7090;49.436;8.490;2023-05-07T04:03:04;6.67;;;6.47;;
14030;SDS011;7090;49.436;8.490;2023-05-07T04:05:30;6.50;;;6.30;;
14030;SDS011;7090;49.436;8.490;2023-05-07T04:07:57;6.60;;;6.40;;
14030;SDS011;7090;49.436;8.490;2023-05-07T04:10:24;6.40;;;6.20;;
14030;SDS011;7090;49.436;8.490;2023-05-07T04:12:49;6.47;;;6.27;;
14030;SDS011;7090;49.436;8.490;2023-05-07T04:15:15;6.40;;;6.20;;
14030;SDS011;7090;49.436;8.490;2023-05-07T04:17:41;6.57;;;6.37;;
14030;SDS011;7090;49.436;8.490;2023-05-07T04:20:08;6.63;;;6.43;;
14030;SDS011;7090;49.436;8.490;2023-05-07T04:22:35;6.57;;;6.37;;
14030;SDS011;7090;49.436;8.490;2023-05-07T04:25:01;6.70;;;6.50;;
14030;SDS011;7090;49.436;8.490;2023-05-07T04:27:28;6.63;;;6.43;;
14030;SDS011;7090;49.436;8.490;2023-05-07T04:29:53;6.63;;;6.43;;
14030;SDS011;7090;49.436;8.490;2023-05-07T04:32:21;6.77;;;6.57;;
14030;SDS011;7090;49.436;8.490;2023-05-07T04:34:47;7.40;;;6.83;;
14030;SDS011;7090;49.436;8.490;2023-05-07T04:37:12;6.60;;;6.40;;
14030;SDS011;7090;49.436;8.490;2023-05-07T04:39:38;6.40;;;6.20;;
14030;SDS011;7090;49.436;8.490;2023-05-07T04:42:03;6.70;;;6.50;;
14030;SDS011;7090;49.436;8.490;2023-05-07T04:44:30;6.20;;;6.00;;
14030;SDS011;7090;49.436;8.490;2023-05-07T04:46:56;6.33;;;6.13;;
14030;SDS011;7090;49.436;8.490;2023-05-07T04:49:22;6.17;;;5.97;;
14030;SDS011;7090;49.436;8.490;2023-05-07T04:51:47;5.60;;;5.40;;
14030;SDS011;7090;49.436;8.490;2023-05-07T04:54:13;5.47;;;5.28;;
14030;SDS011;7090;49.436;8.490;2023-05-07T04:56:38;5.43;;;5.22;;
14030;SDS011;7090;49.436;8.490;2023-05-07T04:59:04;6.20;;;6.00;;
14030;SDS011;7090;49.436;8.490;2023-05-07T05:01:30;6.37;;;6.13;;
14030;SDS011;7090;49.436;8.490;2023-05-07T05:03:56;5.53;;;5.33;;
14030;SDS011;7090;49.436;8.490;2023-05-07T05:06:22;5.87;;;5.67;;
14030;SDS011;7090;49.436;8.490;2023-05-07T05:08:47;5.17;;;4.97;;
14030;SDS011;7090;49.436;8.490;2023-05-07T05:11:13;5.63;;;5.43;;
14030;SDS011;7090;49.436;8.490;2023-05-07T05:13:39;6.27;;;5.90;;
14030;SDS011;7090;49.436;8.490;2023-05-07T05:16:05;6.73;;;6.43;;
14030;SDS011;7090;49.436;8.490;2023-05-07T05:18:31;5.60;;;5.40;;
14030;SDS011;7090;49.436;8.490;2023-05-07T05:20:57;5.67;;;5.47;;
14030;SDS011;7090;49.436;8.490;2023-05-07T05:23:22;6.47;;;6.10;;
14030;SDS011;7090;49.436;8.490;2023-05-07T05:25:48;5.37;;;5.17;;
14030;SDS011;7090;49.436;8.490;2023-05-07T05:28:13;5.07;;;4.87;;
14030;SDS011;7090;49.436;8.490;2023-05-07T05:30:39;5.73;;;5.33;;
14030;SDS011;7090;49.436;8.490;2023-05-07T05:33:05;4.30;;;4.20;;
14030;SDS011;7090;49.436;8.490;2023-05-07T05:35:30;4.57;;;4.38;;
14030;SDS011;7090;49.436;8.490;2023-05-07T05:37:56;4.43;;;4.33;;
14030;SDS011;7090;49.436;8.490;2023-05-07T05:40:22;4.40;;;4.30;;
14030;SDS011;7090;49.436;8.490;2023-05-07T05:42:48;4.75;;;4.55;;
14030;SDS011;7090;49.436;8.490;2023-05-07T05:45:13;4.20;;;4.10;;
14030;SDS011;7090;49.436;8.490;2023-05-07T05:47:39;6.13;;;5.82;;
14030;SDS011;7090;49.436;8.490;2023-05-07T05:50:05;4.78;;;4.68;;
14030;SDS011;7090;49.436;8.490;2023-05-07T05:52:31;4.65;;;4.55;;
14030;SDS011;7090;49.436;8.490;2023-05-07T05:54:57;4.70;;;4.60;;
14030;SDS011;7090;49.436;8.490;2023-05-07T05:57:22;5.22;;;5.03;;
14030;SDS011;7090;49.436;8.490;2023-05-07T05:59:48;6.45;;;6.15;;
14030;SDS011;7090;49.436;8.490;2023-05-07T06:02:14;5.40;;;5.20;;
14030;SDS011;7090;49.436;8.490;2023-05-07T06:04:39;6.20;;;6.00;;
14030;SDS011;7090;49.436;8.490;2023-05-07T06:07:05;6.30;;;6.10;;
14030;SDS011;7090;49.436;8.490;2023-05-07T06:09:31;6.75;;;6.55;;
14030;SDS011;7090;49.436;8.490;2023-05-07T06:11:56;7.47;;;7.18;;
14030;SDS011;7090;49.436;8.490;2023-05-07T06:14:22;6.80;;;6.60;;
14030;SDS011;7090;49.436;8.490;2023-05-07T06:16:47;6.78;;;6.53;;
14030;SDS011;7090;49.436;8.490;2023-05-07T06:19:13;6.65;;;6.45;;
14030;SDS011;7090;49.436;8.490;2023-05-07T06:21:39;6.53;;;6.32;;
14030;SDS011;7090;49.436;8.490;2023-05-07T06:24:05;7.05;;;6.75;;
14030;SDS011;7090;49.436;8.490;2023-05-07T06:26:31;6.30;;;6.10;;
14030;SDS011;7090;49.436;8.490;2023-05-07T06:28:56;6.43;;;6.22;;
14030;SDS011;7090;49.436;8.490;2023-05-07T06:31:22;6.50;;;6.30;;
14030;SDS011;7090;49.436;8.490;2023-05-07T06:33:48;6.30;;;6.00;;
14030;SDS011;7090;49.436;8.490;2023-05-07T06:36:14;5.50;;;5.30;;
14030;SDS011;7090;49.436;8.490;2023-05-07T06:38:40;6.03;;;5.82;;
14030;SDS011;7090;49.436;8.490;2023-05-07T06:41:06;4.95;;;4.75;;
14030;SDS011;7090;49.436;8.490;2023-05-07T06:43:32;5.00;;;4.80;;
14030;SDS011;7090;49.436;8.490;2023-05-07T06:45:58;6.47;;;6.18;;
14030;SDS011;7090;49.436;8.490;2023-05-07T06:48:24;5.10;;;4.90;;
14030;SDS011;7090;49.436;8.490;2023-05-07T06:50:50;4.97;;;4.80;;
14030;SDS011;7090;49.436;8.490;2023-05-07T06:53:15;4.50;;;4.40;;
14030;SDS011;7090;49.436;8.490;2023-05-07T06:55:41;4.40;;;4.30;;
14030;SDS011;7090;49.436;8.490;2023-05-07T06:58:06;4.78;;;4.68;;
14030;SDS011;7090;49.436;8.490;2023-05-07T07:00:32;9.55;;;5.22;;
14030;SDS011;7090;49.436;8.490;2023-05-07T07:02:58;4.90;;;4.80;;
14030;SDS011;7090;49.436;8.490;2023-05-07T07:05:24;5.10;;;4.90;;
14030;SDS011;7090;49.436;8.490;2023-05-07T07:07:50;4.50;;;4.40;;
14030;SDS011;7090;49.436;8.490;2023-05-07T07:10:20;5.00;;;4.80;;
14030;SDS011;7090;49.436;8.490;2023-05-07T07:12:47;5.55;;;5.35;;
14030;SDS011;7090;49.436;8.490;2023-05-07T07:15:13;4.80;;;4.70;;
14030;SDS011;7090;49.436;8.490;2023-05-07T07:17:39;5.20;;;5.00;;
14030;SDS011;7090;49.436;8.490;2023-05-07T07:20:05;4.70;;;4.60;;
14030;SDS011;7090;49.436;8.490;2023-05-07T07:22:31;4.43;;;4.25;;
14030;SDS011;7090;49.436;8.490;2023-05-07T07:24:57;4.78;;;4.57;;
14030;SDS011;7090;49.436;8.490;2023-05-07T07:27:22;5.47;;;5.28;;
14030;SDS011;7090;49.436;8.490;2023-05-07T07:29:48;5.57;;;5.38;;
14030;SDS011;7090;49.436;8.490;2023-05-07T07:32:14;4.90;;;4.78;;
14030;SDS011;7090;49.436;8.490;2023-05-07T07:34:39;4.90;;;4.80;;
14030;SDS011;7090;49.436;8.490;2023-05-07T07:37:05;5.25;;;5.05;;
14030;SDS011;7090;49.436;8.490;2023-05-07T07:39:34;4.95;;;4.75;;
14030;SDS011;7090;49.436;8.490;2023-05-07T07:42:02;4.88;;;4.78;;
14030;SDS011;7090;49.436;8.490;2023-05-07T07:44:28;5.65;;;5.45;;
14030;SDS011;7090;49.436;8.490;2023-05-07T07:46:53;5.70;;;5.50;;
14030;SDS011;7090;49.436;8.490;2023-05-07T07:49:19;5.50;;;5.30;;
14030;SDS011;7090;49.436;8.490;2023-05-07T07:51:45;5.75;;;5.55;;
14030;SDS011;7090;49.436;8.490;2023-05-07T07:54:10;5.93;;;5.72;;
14030;SDS011;7090;49.436;8.490;2023-05-07T07:56:36;5.90;;;5.70;;
14030;SDS011;7090;49.436;8.490;2023-05-07T07:59:02;7.40;;;7.03;;
14030;SDS011;7090;49.436;8.490;2023-05-07T08:01:29;6.68;;;6.47;;
14030;SDS011;7090;49.436;8.490;2023-05-07T08:03:55;7.15;;;6.85;;
14030;SDS011;7090;49.436;8.490;2023-05-07T08:06:20;7.82;;;7.18;;
14030;SDS011;7090;49.436;8.490;2023-05-07T08:08:46;6.57;;;6.38;;
14030;SDS011;7090;49.436;8.490;2023-05-07T08:11:12;6.80;;;6.50;;
14030;SDS011;7090;49.436;8.490;2023-05-07T08:13:37;6.40;;;6.00;;
14030;SDS011;7090;49.436;8.490;2023-05-07T08:16:03;6.88;;;6.55;;
14030;SDS011;7090;49.436;8.490;2023-05-07T08:18:29;6.93;;;6.63;;
14030;SDS011;7090;49.436;8.490;2023-05-07T08:20:55;7.60;;;7.20;;
14030;SDS011;7090;49.436;8.490;2023-05-07T08:23:21;6.53;;;6.22;;
14030;SDS011;7090;49.436;8.490;2023-05-07T08:25:47;6.43;;;6.13;;
14030;SDS011;7090;49.436;8.490;2023-05-07T08:28:13;6.25;;;6.05;;
14030;SDS011;7090;49.436;8.490;2023-05-07T08:30:39;7.38;;;6.97;;
14030;SDS011;7090;49.436;8.490;2023-05-07T08:33:05;6.45;;;6.25;;
14030;SDS011;7090;49.436;8.490;2023-05-07T08:35:31;6.47;;;6.28;;
14030;SDS011;7090;49.436;8.490;2023-05-07T08:37:56;6.10;;;5.90;;
14030;SDS011;7090;49.436;8.490;2023-05-07T08:40:23;6.30;;;6.10;;
14030;SDS011;7090;49.436;8.490;2023-05-07T08:42:51;6.70;;;6.50;;
14030;SDS011;7090;49.436;8.490;2023-05-07T08:45:18;7.20;;;6.90;;
14030;SDS011;7090;49.436;8.490;2023-05-07T08:47:54;8.15;;;7.85;;
14030;SDS011;7090;49.436;8.490;2023-05-07T08:50:24;7.40;;;7.10;;
14030;SDS011;7090;49.436;8.490;2023-05-07T08:52:50;7.60;;;7.30;;
14030;SDS011;7090;49.436;8.490;2023-05-07T08:55:16;8.10;;;7.60;;
14030;SDS011;7090;49.436;8.490;2023-05-07T08:57:42;7.43;;;7.13;;
14030;SDS011;7090;49.436;8.490;2023-05-07T09:00:08;7.35;;;7.05;;
14030;SDS011;7090;49.436;8.490;2023-05-07T09:02:35;7.88;;;7.57;;
14030;SDS011;7090;49.436;8.490;2023-05-07T09:05:01;7.38;;;7.07;;
14030;SDS011;7090;49.436;8.490;2023-05-07T09:07:27;8.00;;;7.70;;
14030;SDS011;7090;49.436;8.490;2023-05-07T09:09:53;7.75;;;7.45;;
14030;SDS011;7090;49.436;8.490;2023-05-07T09:12:20;6.80;;;6.60;;
14030;SDS011;7090;49.436;8.490;2023-05-07T09:14:46;7.53;;;7.22;;
14030;SDS011;7090;49.436;8.490;2023-05-07T09:17:12;7.40;;;7.10;;
14030;SDS011;7090;49.436;8.490;2023-05-07T09:19:38;7.00;;;6.80;;
14030;SDS011;7090;49.436;8.490;2023-05-07T09:22:04;6.53;;;6.32;;
14030;SDS011;7090;49.436;8.490;2023-05-07T09:24:32;7.70;;;7.40;;
14030;SDS011;7090;49.436;8.490;2023-05-07T09:27:03;7.57;;;7.28;;
14030;SDS011;7090;49.436;8.490;2023-05-07T09:29:29;7.45;;;7.15;;
14030;SDS011;7090;49.436;8.490;2023-05-07T09:32:00;7.25;;;6.95;;
14030;SDS011;7090;49.436;8.490;2023-05-07T09:34:30;8.10;;;7.70;;
14030;SDS011;7090;49.436;8.490;2023-05-07T09:36:58;7.47;;;7.18;;
14030;SDS011;7090;49.436;8.490;2023-05-07T09:39:25;7.47;;;7.18;;
14030;SDS011;7090;49.436;8.490;2023-05-07T09:41:51;7.20;;;6.90;;
14030;SDS011;7090;49.436;8.490;2023-05-07T09:44:19;7.00;;;6.80;;
14030;SDS011;7090;49.436;8.490;2023-05-07T09:46:46;7.70;;;7.20;;
14030;SDS011;7090;49.436;8.490;2023-05-07T09:49:20;7.60;;;7.30;;
14030;SDS011;7090;49.436;8.490;2023-05-07T09:51:48;7.70;;;7.40;;
14030;SDS011;7090;49.436;8.490;2023-05-07T09:54:16;7.90;;;7.60;;
14030;SDS011;7090;49.436;8.490;2023-05-07T09:56:43;7.80;;;7.50;;
14030;SDS011;7090;49.436;8.490;2023-05-07T09:59:12;7.43;;;7.13;;
14030;SDS011;7090;49.436;8.490;2023-05-07T10:01:40;8.32;;;7.95;;
14030;SDS011;7090;49.436;8.490;2023-05-07T10:04:07;7.57;;;7.28;;
14030;SDS011;7090;49.436;8.490;2023-05-07T10:06:34;7.97;;;7.68;;
14030;SDS011;7090;49.436;8.490;2023-05-07T10:09:01;7.68;;;7.38;;
14030;SDS011;7090;49.436;8.490;2023-05-07T10:11:27;8.07;;;7.78;;
14030;SDS011;7090;49.436;8.490;2023-05-07T10:13:53;8.10;;;7.80;;
14030;SDS011;7090;49.436;8.490;2023-05-07T10:16:20;7.72;;;7.43;;
14030;SDS011;7090;49.436;8.490;2023-05-07T10:18:46;7.50;;;7.20;;
14030;SDS011;7090;49.436;8.490;2023-05-07T10:21:17;8.00;;;7.70;;
14030;SDS011;7090;49.436;8.490;2023-05-07T10:23:56;7.65;;;7.35;;
14030;SDS011;7090;49.436;8.490;2023-05-07T10:26:43;7.85;;;7.55;;
14030;SDS011;7090;49.436;8.490;2023-05-07T10:34:52;6.97;;;6.68;;
14030;SDS011;7090;49.436;8.490;2023-05-07T10:37:20;7.78;;;7.32;;
14030;SDS011;7090;49.436;8.490;2023-05-07T10:39:46;8.18;;;7.68;;
14030;SDS011;7090;49.436;8.490;2023-05-07T10:42:12;7.63;;;7.32;;
14030;SDS011;7090;49.436;8.490;2023-05-07T10:44:39;8.32;;;7.82;;
14030;SDS011;7090;49.436;8.490;2023-05-07T10:49:35;7.55;;;7.25;;
14030;SDS011;7090;49.436;8.490;2023-05-07T10:52:15;8.10;;;7.70;;
14030;SDS011;7090;49.436;8.490;2023-05-07T10:54:42;8.27;;;7.88;;
14030;SDS011;7090;49.436;8.490;2023-05-07T11:00:01;9.57;;;9.07;;
14030;SDS011;7090;49.436;8.490;2023-05-07T11:05:24;8.52;;;8.13;;
14030;SDS011;7090;49.436;8.490;2023-05-07T11:07:54;7.93;;;7.63;;
14030;SDS011;7090;49.436;8.490;2023-05-07T11:10:20;8.30;;;7.90;;
14030;SDS011;7090;49.436;8.490;2023-05-07T11:12:47;10.13;;;9.52;;
14030;SDS011;7090;49.436;8.490;2023-05-07T11:15:13;8.40;;;8.00;;
14030;SDS011;7090;49.436;8.490;2023-05-07T11:17:59;8.43;;;8.02;;
14030;SDS011;7090;49.436;8.490;2023-05-07T11:23:54;9.25;;;8.65;;
14030;SDS011;7090;49.436;8.490;2023-05-07T11:26:01;8.15;;;7.82;;
14030;SDS011;7090;49.436;8.490;2023-05-07T11:28:38;9.45;;;8.95;;
14030;SDS011;7090;49.436;8.490;2023-05-07T11:31:08;9.50;;;9.00;;
14030;SDS011;7090;49.436;8.490;2023-05-07T11:33:34;8.90;;;8.50;;
14030;SDS011;7090;49.436;8.490;2023-05-07T11:36:02;8.60;;;8.20;;
14030;SDS011;7090;49.436;8.490;2023-05-07T11:38:38;8.20;;;7.90;;
14030;SDS011;7090;49.436;8.490;2023-05-07T11:41:03;8.18;;;7.88;;
14030;SDS011;7090;49.436;8.490;2023-05-07T11:43:32;8.70;;;8.30;;
14030;SDS011;7090;49.436;8.490;2023-05-07T11:46:08;8.20;;;7.90;;
14030;SDS011;7090;49.436;8.490;2023-05-07T11:48:35;8.25;;;7.95;;
14030;SDS011;7090;49.436;8.490;2023-05-07T11:51:02;9.10;;;8.70;;
14030;SDS011;7090;49.436;8.490;2023-05-07T11:53:35;8.73;;;8.32;;
14030;SDS011;7090;49.436;8.490;2023-05-07T11:58:34;8.85;;;8.45;;
14030;SDS011;7090;49.436;8.490;2023-05-07T12:01:00;9.07;;;8.68;;
14030;SDS011;7090;49.436;8.490;2023-05-07T12:03:26;8.43;;;8.02;;
14030;SDS011;7090;49.436;8.490;2023-05-07T12:05:51;8.48;;;8.07;;
14030;SDS011;7090;49.436;8.490;2023-05-07T12:08:17;8.40;;;8.00;;
14030;SDS011;7090;49.436;8.490;2023-05-07T12:10:44;8.25;;;7.95;;
14030;SDS011;7090;49.436;8.490;2023-05-07T12:15:44;8.25;;;7.95;;
14030;SDS011;7090;49.436;8.490;2023-05-07T12:18:11;9.18;;;8.68;;
14030;SDS011;7090;49.436;8.490;2023-05-07T12:20:38;9.77;;;9.27;;
14030;SDS011;7090;49.436;8.490;2023-05-07T12:23:04;9.45;;;8.95;;
14030;SDS011;7090;49.436;8.490;2023-05-07T12:25:37;8.90;;;8.50;;
14030;SDS011;7090;49.436;8.490;2023-05-07T12:28:04;8.55;;;8.18;;
14030;SDS011;7090;49.436;8.490;2023-05-07T12:30:36;8.90;;;8.50;;
14030;SDS011;7090;49.436;8.490;2023-05-07T12:33:03;9.10;;;8.70;;
14030;SDS011;7090;49.436;8.490;2023-05-07T12:35:29;9.13;;;8.63;;
14030;SDS011;7090;49.436;8.490;2023-05-07T12:37:56;9.52;;;8.95;;
14030;SDS011;7090;49.436;8.490;2023-05-07T12:40:24;9.63;;;8.95;;
14030;SDS011;7090;49.436;8.490;2023-05-07T12:43:00;8.60;;;8.20;;
14030;SDS011;7090;49.436;8.490;2023-05-07T12:45:25;9.25;;;8.75;;
14030;SDS011;7090;49.436;8.490;2023-05-07T12:47:51;9.02;;;8.63;;
14030;SDS011;7090;49.436;8.490;2023-05-07T12:50:17;8.30;;;8.00;;
14030;SDS011;7090;49.436;8.490;2023-05-07T12:52:43;8.20;;;7.90;;
14030;SDS011;7090;49.436;8.490;2023-05-07T12:55:12;8.68;;;8.20;;
14030;SDS011;7090;49.436;8.490;2023-05-07T12:57:40;7.53;;;7.22;;
14030;SDS011;7090;49.436;8.490;2023-05-07T13:00:08;8.15;;;7.85;;
14030;SDS011;7090;49.436;8.490;2023-05-07T13:02:36;7.90;;;7.60;;
14030;SDS011;7090;49.436;8.490;2023-05-07T13:05:03;7.30;;;7.00;;
14030;SDS011;7090;49.436;8.490;2023-05-07T13:07:29;7.70;;;7.40;;
14030;SDS011;7090;49.436;8.490;2023-05-07T13:09:54;8.40;;;8.10;;
14030;SDS011;7090;49.436;8.490;2023-05-07T13:12:20;8.90;;;8.48;;
14030;SDS011;7090;49.436;8.490;2023-05-07T13:14:46;8.00;;;7.60;;
14030;SDS011;7090;49.436;8.490;2023-05-07T13:17:11;8.63;;;8.32;;
14030;SDS011;7090;49.436;8.490;2023-05-07T13:19:37;8.10;;;7.80;;
14030;SDS011;7090;49.436;8.490;2023-05-07T13:22:03;8.20;;;7.90;;
14030;SDS011;7090;49.436;8.490;2023-05-07T13:24:29;8.60;;;8.20;;
14030;SDS011;7090;49.436;8.490;2023-05-07T13:26:54;9.27;;;8.68;;
14030;SDS011;7090;49.436;8.490;2023-05-07T13:29:20;8.10;;;7.80;;
14030;SDS011;7090;49.436;8.490;2023-05-07T13:31:50;8.50;;;8.10;;
14030;SDS011;7090;49.436;8.490;2023-05-07T13:34:15;8.57;;;8.20;;
14030;SDS011;7090;49.436;8.490;2023-05-07T13:36:41;8.07;;;7.78;;
14030;SDS011;7090;49.436;8.490;2023-05-07T13:39:07;8.60;;;8.20;;
14030;SDS011;7090;49.436;8.490;2023-05-07T13:41:33;8.18;;;7.88;;
14030;SDS011;7090;49.436;8.490;2023-05-07T13:43:59;7.65;;;7.35;;
14030;SDS011;7090;49.436;8.490;2023-05-07T13:46:25;7.20;;;6.80;;
14030;SDS011;7090;49.436;8.490;2023-05-07T13:48:50;6.82;;;6.25;;
14030;SDS011;7090;49.436;8.490;2023-05-07T13:51:16;7.50;;;7.10;;
14030;SDS011;7090;49.436;8.490;2023-05-07T13:53:42;6.30;;;6.00;;
14030;SDS011;7090;49.436;8.490;2023-05-07T13:56:07;6.72;;;6.43;;
14030;SDS011;7090;49.436;8.490;2023-05-07T13:58:33;5.90;;;5.50;;
14030;SDS011;7090;49.436;8.490;2023-05-07T14:00:58;6.28;;;5.97;;
14030;SDS011;7090;49.436;8.490;2023-05-07T14:03:24;7.55;;;7.05;;
14030;SDS011;7090;49.436;8.490;2023-05-07T14:05:50;7.50;;;6.90;;
14030;SDS011;7090;49.436;8.490;2023-05-07T14:08:15;5.80;;;5.57;;
14030;SDS011;7090;49.436;8.490;2023-05-07T14:10:43;5.93;;;5.68;;
14030;SDS011;7090;49.436;8.490;2023-05-07T14:13:09;6.63;;;6.32;;
14030;SDS011;7090;49.436;8.490;2023-05-07T14:15:35;6.22;;;5.97;;
14030;SDS011;7090;49.436;8.490;2023-05-07T14:18:01;19.05;;;5.97;;
14030;SDS011;7090;49.436;8.490;2023-05-07T14:20:27;7.72;;;7.43;;
14030;SDS011;7090;49.436;8.490;2023-05-07T14:22:52;9.90;;;9.40;;
14030;SDS011;7090;49.436;8.490;2023-05-07T14:25:18;10.23;;;9.82;;
14030;SDS011;7090;49.436;8.490;2023-05-07T14:27:44;12.23;;;11.43;;
14030;SDS011;7090;49.436;8.490;2023-05-07T14:30:09;12.70;;;12.05;;
14030;SDS011;7090;49.436;8.490;2023-05-07T14:32:35;12.80;;;12.20;;
14030;SDS011;7090;49.436;8.490;2023-05-07T14:35:01;11.80;;;11.20;;
14030;SDS011;7090;49.436;8.490;2023-05-07T14:37:27;15.90;;;15.00;;
14030;SDS011;7090;49.436;8.490;2023-05-07T14:39:53;15.35;;;14.45;;
14030;SDS011;7090;49.436;8.490;2023-05-07T14:42:18;13.52;;;12.82;;
14030;SDS011;7090;49.436;8.490;2023-05-07T14:44:44;11.50;;;10.93;;
14030;SDS011;7090;49.436;8.490;2023-05-07T14:47:10;11.50;;;10.90;;
14030;SDS011;7090;49.436;8.490;2023-05-07T14:49:36;12.80;;;11.98;;
14030;SDS011;7090;49.436;8.490;2023-05-07T14:52:01;10.40;;;9.77;;
14030;SDS011;7090;49.436;8.490;2023-05-07T14:54:27;8.68;;;8.15;;
14030;SDS011;7090;49.436;8.490;2023-05-07T14:56:53;9.70;;;8.90;;
14030;SDS011;7090;49.436;8.490;2023-05-07T14:59:18;8.40;;;7.82;;
14030;SDS011;7090;49.436;8.490;2023-05-07T15:01:46;9.77;;;8.88;;
14030;SDS011;7090;49.436;8.490;2023-05-07T15:04:12;7.45;;;6.90;;
14030;SDS011;7090;49.436;8.490;2023-05-07T15:06:38;6.93;;;6.47;;
14030;SDS011;7090;49.436;8.490;2023-05-07T15:09:03;10.43;;;7.97;;
14030;SDS011;7090;49.436;8.490;2023-05-07T15:11:29;7.60;;;7.10;;
14030;SDS011;7090;49.436;8.490;2023-05-07T15:13:55;8.43;;;7.63;;
14030;SDS011;7090;49.436;8.490;2023-05-07T15:16:21;7.97;;;7.32;;
14030;SDS011;7090;49.436;8.490;2023-05-07T15:18:46;9.52;;;6.68;;